createdAt,value
2023-05-10T00:00:25.992Z,82.92
2023-05-10T00:01:26.004Z,82.62
2023-05-10T00:02:26.097Z,82.62
2023-05-10T00:03:26.102Z,82.82
2023-05-10T00:04:26.074Z,82.92
2023-05-10T00:05:26.062Z,83.06
2023-05-10T00:06:26.061Z,83.12
2023-05-10T00:07:26.076Z,82.92
2023-05-10T00:08:26.084Z,83.02
2023-05-10T00:09:26.077Z,83.12
2023-05-10T00:10:26.089Z,83.22
2023-05-10T00:11:26.102Z,83.22
2023-05-10T00:12:26.100Z,83.32
2023-05-10T00:13:26.291Z,83.46
2023-05-10T00:14:26.115Z,83.36
2023-05-10T00:15:26.130Z,83.16
2023-05-10T00:16:26.181Z,83.16
2023-05-10T00:17:26.178Z,83.26
2023-05-10T00:18:26.169Z,83.26
2023-05-10T00:19:26.169Z,83.36
2023-05-10T00:20:26.154Z,83.46
2023-05-10T00:21:26.155Z,83.46
2023-05-10T00:22:26.157Z,83.97
2023-05-10T00:23:26.136Z,83.66
2023-05-10T00:24:26.192Z,84.07
2023-05-10T00:25:26.150Z,83.97
2023-05-10T00:26:26.143Z,84.17
2023-05-10T00:27:26.147Z,84.17
2023-05-10T00:28:26.139Z,84.27
2023-05-10T00:29:26.133Z,84.27
2023-05-10T00:30:26.153Z,84.27
2023-05-10T00:31:26.178Z,84.27
2023-05-10T00:32:26.219Z,84.27
2023-05-10T00:33:26.198Z,84.81
2023-05-10T00:34:26.192Z,85.11
2023-05-10T00:35:26.188Z,85.42
2023-05-10T00:36:26.284Z,85.31
2023-05-10T00:37:26.290Z,85.22
2023-05-10T00:38:26.290Z,85.72
2023-05-10T00:39:26.285Z,85.82
2023-05-10T00:40:26.289Z,85.62
2023-05-10T00:41:26.348Z,85.72
2023-05-10T00:42:26.345Z,85.42
2023-05-10T00:43:26.346Z,85.72
2023-05-10T00:44:26.329Z,85.72
2023-05-10T00:45:26.399Z,85.72
2023-05-10T00:46:26.451Z,86.13
2023-05-10T00:47:26.485Z,86.02
2023-05-10T00:48:26.491Z,85.92
2023-05-10T00:49:26.506Z,85.58
2023-05-10T00:50:26.567Z,85.48
2023-05-10T00:51:26.562Z,85.48
2023-05-10T00:52:26.550Z,85.28
2023-05-10T00:53:26.599Z,85.17
2023-05-10T00:54:26.563Z,85.17
2023-05-10T00:55:26.557Z,85.38
2023-05-10T00:56:26.572Z,85.58
2023-05-10T00:57:26.552Z,85.58
2023-05-10T00:58:26.531Z,85.48
2023-05-10T00:59:26.539Z,86.02
2023-05-10T01:00:26.564Z,85.82
2023-05-10T01:01:26.600Z,86.22
2023-05-10T01:02:26.739Z,86.33
2023-05-10T01:03:29.505Z,86.36
2023-05-10T01:04:26.978Z,86.87
2023-05-10T01:05:26.829Z,86.22
2023-05-10T01:06:26.831Z,86.33
2023-05-10T01:07:26.724Z,86.33
2023-05-10T01:08:26.808Z,86.16
2023-05-10T01:09:26.796Z,86.22
2023-05-10T01:10:26.827Z,86.02
2023-05-10T01:11:26.827Z,85.72
2023-05-10T01:12:26.877Z,85.96
2023-05-10T01:13:26.946Z,85.86
2023-05-10T01:14:26.968Z,86.00
2023-05-10T01:15:26.905Z,86.16
2023-05-10T01:16:27.026Z,86.07
2023-05-10T01:17:26.921Z,86.07
2023-05-10T01:18:26.920Z,85.86
2023-05-10T01:19:26.974Z,85.62
2023-05-10T01:20:26.988Z,85.52
2023-05-10T01:21:27.696Z,85.31
2023-05-10T01:22:27.020Z,85.42
2023-05-10T01:23:27.055Z,85.31
2023-05-10T01:24:27.055Z,85.22
2023-05-10T01:25:27.291Z,85.52
2023-05-10T01:26:27.135Z,85.42
2023-05-10T01:27:27.163Z,85.31
2023-05-10T01:28:27.146Z,85.31
2023-05-10T01:29:27.171Z,85.42
2023-05-10T01:30:27.484Z,85.22
2023-05-10T01:31:27.265Z,85.31
2023-05-10T01:32:27.295Z,85.42
2023-05-10T01:33:27.277Z,85.42
2023-05-10T01:34:27.291Z,85.52
2023-05-10T01:35:27.284Z,85.72
2023-05-10T01:36:27.333Z,85.72
2023-05-10T01:37:27.346Z,85.62
2023-05-10T01:38:27.336Z,85.52
2023-05-10T01:39:27.357Z,85.62
2023-05-10T01:40:27.359Z,86.13
2023-05-10T01:41:27.352Z,86.13
2023-05-10T01:42:27.347Z,86.13
2023-05-10T01:43:27.436Z,86.36
2023-05-10T01:44:27.494Z,86.27
2023-05-10T01:45:27.529Z,86.77
2023-05-10T01:46:27.615Z,87.07
2023-05-10T01:47:27.632Z,87.32
2023-05-10T01:48:27.587Z,87.41
2023-05-10T01:49:27.640Z,87.62
2023-05-10T01:50:27.712Z,87.72
2023-05-10T01:51:27.691Z,87.72
2023-05-10T01:52:28.685Z,87.27
2023-05-10T01:53:27.725Z,87.27
2023-05-10T01:54:27.788Z,87.58
2023-05-10T01:55:27.846Z,87.38
2023-05-10T01:56:27.823Z,87.52
2023-05-10T01:57:27.885Z,88.06
2023-05-10T01:58:27.926Z,88.77
2023-05-10T01:59:27.990Z,88.67
2023-05-10T02:00:28.127Z,88.67
2023-05-10T02:01:28.073Z,87.92
2023-05-10T02:02:28.165Z,87.92
2023-05-10T02:03:28.232Z,88.12
2023-05-10T02:04:28.213Z,87.82
2023-05-10T02:05:28.308Z,87.48
2023-05-10T02:06:28.341Z,87.12
2023-05-10T02:07:28.398Z,87.18
2023-05-10T02:08:28.440Z,87.07
2023-05-10T02:09:28.481Z,86.97
2023-05-10T02:10:28.514Z,86.77
2023-05-10T02:11:28.576Z,86.87
2023-05-10T02:12:28.635Z,86.77
2023-05-10T02:13:28.793Z,86.77
2023-05-10T02:14:28.698Z,86.67
2023-05-10T02:15:28.741Z,86.67
2023-05-10T02:16:28.878Z,86.77
2023-05-10T02:17:28.921Z,86.73
2023-05-10T02:18:28.862Z,86.53
2023-05-10T02:19:28.910Z,86.67
2023-05-10T02:20:28.959Z,86.97
2023-05-10T02:21:28.984Z,86.77
2023-05-10T02:22:29.038Z,87.52
2023-05-10T02:23:29.084Z,88.12
2023-05-10T02:24:29.124Z,88.32
2023-05-10T02:25:29.179Z,88.08
2023-05-10T02:26:29.253Z,87.92
2023-05-10T02:27:29.310Z,88.23
2023-05-10T02:28:29.352Z,88.12
2023-05-10T02:29:29.416Z,88.67
2023-05-10T02:30:29.486Z,89.28
2023-05-10T02:31:29.474Z,90.23
2023-05-10T02:32:29.514Z,90.98
2023-05-10T02:33:29.570Z,90.82
2023-05-10T02:34:29.614Z,91.73
2023-05-10T02:35:29.656Z,91.67
2023-05-10T02:36:29.715Z,92.13
2023-05-10T02:37:29.750Z,91.42
2023-05-10T02:38:29.818Z,91.73
2023-05-10T02:39:29.863Z,91.87
2023-05-10T02:40:29.936Z,92.08
2023-05-10T02:41:29.978Z,92.52
2023-05-10T02:42:30.050Z,92.22
2023-05-10T02:43:30.080Z,92.42
2023-05-10T02:44:30.065Z,92.52
2023-05-10T02:45:30.072Z,93.13
2023-05-10T02:46:30.176Z,92.68
2023-05-10T02:47:30.228Z,91.97
2023-05-10T02:48:30.233Z,92.08
2023-05-10T02:49:30.232Z,92.08
2023-05-10T02:50:30.237Z,91.73
2023-05-10T02:51:30.234Z,91.77
2023-05-10T02:52:30.234Z,91.97
2023-05-10T02:53:30.229Z,92.18
2023-05-10T02:54:30.229Z,92.18
2023-05-10T02:55:30.236Z,92.03
2023-05-10T02:56:30.232Z,91.42
2023-05-10T02:57:30.230Z,91.18
2023-05-10T02:58:30.230Z,89.97
2023-05-10T02:59:30.210Z,90.11
2023-05-10T03:00:30.242Z,90.31
2023-05-10T03:01:30.261Z,90.21
2023-05-10T03:02:30.287Z,90.62
2023-05-10T03:03:30.223Z,90.17
2023-05-10T03:04:30.300Z,89.66
2023-05-10T03:05:30.268Z,89.66
2023-05-10T03:06:30.334Z,89.36
2023-05-10T03:07:30.363Z,88.96
2023-05-10T03:08:30.350Z,88.96
2023-05-10T03:09:30.403Z,89.20
2023-05-10T03:10:30.435Z,89.91
2023-05-10T03:11:30.481Z,89.70
2023-05-10T03:12:30.520Z,90.01
2023-05-10T03:13:30.649Z,89.91
2023-05-10T03:14:30.589Z,89.56
2023-05-10T03:15:30.640Z,89.16
2023-05-10T03:16:30.760Z,88.85
2023-05-10T03:17:30.713Z,89.10
2023-05-10T03:18:30.674Z,89.36
2023-05-10T03:19:30.725Z,89.16
2023-05-10T03:20:30.764Z,89.36
2023-05-10T03:21:30.838Z,89.26
2023-05-10T03:22:30.873Z,89.26
2023-05-10T03:23:30.916Z,88.96
2023-05-10T03:24:30.961Z,88.85
2023-05-10T03:25:30.994Z,88.65
2023-05-10T03:26:31.057Z,88.85
2023-05-10T03:27:31.113Z,88.85
2023-05-10T03:28:31.157Z,88.55
2023-05-10T03:29:31.208Z,88.65
2023-05-10T03:30:31.194Z,88.45
2023-05-10T03:31:31.310Z,88.75
2023-05-10T03:32:31.322Z,89.06
2023-05-10T03:33:31.287Z,88.96
2023-05-10T03:34:31.351Z,89.06
2023-05-10T03:35:31.377Z,88.85
2023-05-10T03:36:31.421Z,89.36
2023-05-10T03:37:31.452Z,89.56
2023-05-10T03:38:31.425Z,89.66
2023-05-10T03:39:31.459Z,89.66
2023-05-10T03:40:31.452Z,89.66
2023-05-10T03:41:31.486Z,89.26
2023-05-10T03:42:31.508Z,89.91
2023-05-10T03:43:31.527Z,89.91
2023-05-10T03:44:31.544Z,90.21
2023-05-10T03:45:31.554Z,90.11
2023-05-10T03:46:31.618Z,90.16
2023-05-10T03:47:31.641Z,90.56
2023-05-10T03:48:31.653Z,90.41
2023-05-10T03:49:31.674Z,90.21
2023-05-10T03:50:31.693Z,89.97
2023-05-10T03:51:31.709Z,89.70
2023-05-10T03:52:31.726Z,89.81
2023-05-10T03:53:31.761Z,90.01
2023-05-10T03:54:31.786Z,89.87
2023-05-10T03:55:31.820Z,89.97
2023-05-10T03:56:31.785Z,89.36
2023-05-10T03:57:31.803Z,89.56
2023-05-10T03:58:31.826Z,89.36
2023-05-10T03:59:31.851Z,89.36
2023-05-10T04:00:31.882Z,89.06
2023-05-10T04:01:31.906Z,88.85
2023-05-10T04:02:32.014Z,88.81
2023-05-10T04:03:32.100Z,88.65
2023-05-10T04:04:31.975Z,88.61
2023-05-10T04:05:32.029Z,88.85
2023-05-10T04:06:32.108Z,89.16
2023-05-10T04:07:32.043Z,89.06
2023-05-10T04:08:32.045Z,88.65
2023-05-10T04:09:32.050Z,89.26
2023-05-10T04:10:32.067Z,89.16
2023-05-10T04:11:32.068Z,89.70
2023-05-10T04:12:32.061Z,89.91
2023-05-10T04:13:32.133Z,90.21
2023-05-10T04:14:32.143Z,90.21
2023-05-10T04:15:32.140Z,89.91
2023-05-10T04:16:32.152Z,90.41
2023-05-10T04:17:32.181Z,90.11
2023-05-10T04:18:32.163Z,89.87
2023-05-10T04:19:32.165Z,90.41
2023-05-10T04:20:32.178Z,90.62
2023-05-10T04:21:32.156Z,90.21
2023-05-10T04:22:32.242Z,90.11
2023-05-10T04:23:32.310Z,90.56
2023-05-10T04:24:32.314Z,91.67
2023-05-10T04:25:32.336Z,90.82
2023-05-10T04:26:32.403Z,90.21
2023-05-10T04:27:32.375Z,91.37
2023-05-10T04:28:32.394Z,91.02
2023-05-10T04:29:32.423Z,90.52
2023-05-10T04:30:32.465Z,90.58
2023-05-10T04:31:32.482Z,89.66
2023-05-10T04:32:32.572Z,89.97
2023-05-10T04:33:32.540Z,89.61
2023-05-10T04:34:32.586Z,90.21
2023-05-10T04:35:32.653Z,90.72
2023-05-10T04:36:32.689Z,90.86
2023-05-10T04:37:32.732Z,91.06
2023-05-10T04:38:32.809Z,91.37
2023-05-10T04:39:32.828Z,91.06
2023-05-10T04:40:32.895Z,90.86
2023-05-10T04:41:32.921Z,91.66
2023-05-10T04:42:32.934Z,92.67
2023-05-10T04:43:33.003Z,92.26
2023-05-10T04:44:32.985Z,93.58
2023-05-10T04:45:33.033Z,92.93
2023-05-10T04:46:33.052Z,92.47
2023-05-10T04:47:33.103Z,93.18
2023-05-10T04:48:33.149Z,92.91
2023-05-10T04:49:33.170Z,93.83
2023-05-10T04:50:33.217Z,93.88
2023-05-10T04:51:33.288Z,93.07
2023-05-10T04:52:33.343Z,92.87
2023-05-10T04:53:33.428Z,92.61
2023-05-10T04:54:33.430Z,92.91
2023-05-10T04:55:33.470Z,93.77
2023-05-10T04:56:33.496Z,93.51
2023-05-10T04:57:33.520Z,94.27
2023-05-10T04:58:33.587Z,94.26
2023-05-10T04:59:33.609Z,94.67
2023-05-10T05:00:33.649Z,94.73
2023-05-10T05:01:33.643Z,93.91
2023-05-10T05:02:33.691Z,93.61
2023-05-10T05:03:33.828Z,93.87
2023-05-10T05:04:33.682Z,93.51
2023-05-10T05:05:33.716Z,93.51
2023-05-10T05:06:33.741Z,93.65
2023-05-10T05:07:33.779Z,93.65
2023-05-10T05:08:33.789Z,94.26
2023-05-10T05:09:33.814Z,93.41
2023-05-10T05:10:33.845Z,93.41
2023-05-10T05:11:33.867Z,93.71
2023-05-10T05:12:33.898Z,93.25
2023-05-10T05:13:33.956Z,93.71
2023-05-10T05:14:33.986Z,93.35
2023-05-10T05:15:34.014Z,93.61
2023-05-10T05:16:34.085Z,92.49
2023-05-10T05:17:34.156Z,93.05
2023-05-10T05:18:34.184Z,93.65
2023-05-10T05:19:34.173Z,93.55
2023-05-10T05:20:34.211Z,93.35
2023-05-10T05:21:34.230Z,93.70
2023-05-10T05:22:34.281Z,94.46
2023-05-10T05:23:34.372Z,93.45
2023-05-10T05:24:34.358Z,93.41
2023-05-10T05:25:34.428Z,93.15
2023-05-10T05:26:34.492Z,93.30
2023-05-10T05:27:34.549Z,92.80
2023-05-10T05:28:34.644Z,93.10
2023-05-10T05:29:34.669Z,92.80
2023-05-10T05:30:34.712Z,92.35
2023-05-10T05:31:34.836Z,91.94
2023-05-10T05:32:34.779Z,92.14
2023-05-10T05:33:34.788Z,92.45
2023-05-10T05:34:34.942Z,91.94
2023-05-10T05:35:34.878Z,92.19
2023-05-10T05:36:37.051Z,92.80
2023-05-10T05:37:34.952Z,92.49
2023-05-10T05:38:34.997Z,93.45
2023-05-10T05:39:35.119Z,93.81
2023-05-10T05:40:35.088Z,93.21
2023-05-10T05:41:35.156Z,92.80
2023-05-10T05:42:35.218Z,92.80
2023-05-10T05:43:38.031Z,92.40
2023-05-10T05:44:35.316Z,93.10
2023-05-10T05:45:35.375Z,92.76
2023-05-10T05:46:35.326Z,92.29
2023-05-10T05:47:35.418Z,92.80
2023-05-10T05:48:35.486Z,92.90
2023-05-10T05:49:35.471Z,92.70
2023-05-10T05:50:35.448Z,93.00
2023-05-10T05:51:35.487Z,92.60
2023-05-10T05:52:35.556Z,92.60
2023-05-10T05:53:35.624Z,92.40
2023-05-10T05:54:35.708Z,92.65
2023-05-10T05:55:35.779Z,92.05
2023-05-10T05:56:35.790Z,91.93
2023-05-10T05:57:35.762Z,92.74
2023-05-10T05:58:35.754Z,92.80
2023-05-10T05:59:35.758Z,93.15
2023-05-10T06:00:35.851Z,92.94
2023-05-10T06:01:35.873Z,93.05
2023-05-10T06:02:35.914Z,92.80
2023-05-10T06:03:35.963Z,92.64
2023-05-10T06:04:36.003Z,92.80
2023-05-10T06:05:36.191Z,92.19
2023-05-10T06:06:36.052Z,92.13
2023-05-10T06:07:36.086Z,92.70
2023-05-10T06:08:36.076Z,92.45
2023-05-10T06:09:36.084Z,92.19
2023-05-10T06:10:36.094Z,91.78
2023-05-10T06:11:36.142Z,91.64
2023-05-10T06:12:36.180Z,92.05
2023-05-10T06:13:36.394Z,91.34
2023-05-10T06:14:36.233Z,91.54
2023-05-10T06:15:36.306Z,91.85
2023-05-10T06:16:36.437Z,90.89
2023-05-10T06:17:36.518Z,91.70
2023-05-10T06:18:36.421Z,90.58
2023-05-10T06:19:36.483Z,90.28
2023-05-10T06:20:36.485Z,91.24
2023-05-10T06:21:36.524Z,91.44
2023-05-10T06:22:36.523Z,91.44
2023-05-10T06:23:36.530Z,91.13
2023-05-10T06:24:36.558Z,91.78
2023-05-10T06:25:36.557Z,92.25
2023-05-10T06:26:36.599Z,91.60
2023-05-10T06:27:36.669Z,91.30
2023-05-10T06:28:36.712Z,91.30
2023-05-10T06:29:36.761Z,91.30
2023-05-10T06:30:36.788Z,91.30
2023-05-10T06:31:36.884Z,91.13
2023-05-10T06:32:36.926Z,91.85
2023-05-10T06:33:36.951Z,92.25
2023-05-10T06:34:36.961Z,92.14
2023-05-10T06:35:36.977Z,92.05
2023-05-10T06:36:36.979Z,91.78
2023-05-10T06:37:36.955Z,91.28
2023-05-10T06:38:37.019Z,91.78
2023-05-10T06:39:37.012Z,91.64
2023-05-10T06:40:37.081Z,91.09
2023-05-10T06:41:37.106Z,90.44
2023-05-10T06:42:37.130Z,89.43
2023-05-10T06:43:37.158Z,89.32
2023-05-10T06:44:37.144Z,89.02
2023-05-10T06:45:37.161Z,89.83
2023-05-10T06:46:37.220Z,89.48
2023-05-10T06:47:39.171Z,88.48
2023-05-10T06:48:37.211Z,89.63
2023-05-10T06:49:37.206Z,89.39
2023-05-10T06:50:37.231Z,89.28
2023-05-10T06:51:37.280Z,89.39
2023-05-10T06:52:37.345Z,88.88
2023-05-10T06:53:37.396Z,89.28
2023-05-10T06:54:37.386Z,88.48
2023-05-10T06:55:37.383Z,88.37
2023-05-10T06:56:37.405Z,89.23
2023-05-10T06:57:37.428Z,89.23
2023-05-10T06:58:37.450Z,89.23
2023-05-10T06:59:37.533Z,89.77
2023-05-10T07:00:37.486Z,89.77
2023-05-10T07:01:37.492Z,90.42
2023-05-10T07:02:37.503Z,91.13
2023-05-10T07:03:37.475Z,91.09
2023-05-10T07:04:37.534Z,90.75
2023-05-10T07:05:37.659Z,89.99
2023-05-10T07:06:37.630Z,88.82
2023-05-10T07:07:37.651Z,89.63
2023-05-10T07:08:37.706Z,89.43
2023-05-10T07:09:37.688Z,89.63
2023-05-10T07:10:37.710Z,89.79
2023-05-10T07:11:37.719Z,89.12
2023-05-10T07:12:37.757Z,89.28
2023-05-10T07:13:37.741Z,89.02
2023-05-10T07:14:37.734Z,89.63
2023-05-10T07:15:37.731Z,89.39
2023-05-10T07:16:37.906Z,88.62
2023-05-10T07:17:37.852Z,89.94
2023-05-10T07:18:37.847Z,89.69
2023-05-10T07:19:37.882Z,88.74
2023-05-10T07:20:37.842Z,88.29
2023-05-10T07:21:37.842Z,87.82
2023-05-10T07:22:37.846Z,88.07
2023-05-10T07:23:37.848Z,88.01
2023-05-10T07:24:37.863Z,88.62
2023-05-10T07:25:37.845Z,88.78
2023-05-10T07:26:37.874Z,87.97
2023-05-10T07:27:37.877Z,88.78
2023-05-10T07:28:37.867Z,88.43
2023-05-10T07:29:37.887Z,86.76
2023-05-10T07:30:37.929Z,87.66
2023-05-10T07:31:37.947Z,87.77
2023-05-10T07:32:38.067Z,87.66
2023-05-10T07:33:38.001Z,88.23
2023-05-10T07:34:37.987Z,86.77
2023-05-10T07:35:37.992Z,86.57
2023-05-10T07:36:38.055Z,86.67
2023-05-10T07:37:38.055Z,86.37
2023-05-10T07:38:40.837Z,85.62
2023-05-10T07:39:38.115Z,85.54
2023-05-10T07:40:38.133Z,84.99
2023-05-10T07:41:38.180Z,85.16
2023-05-10T07:42:38.199Z,83.04
2023-05-10T07:43:38.255Z,82.78
2023-05-10T07:44:38.293Z,84.33
2023-05-10T07:45:38.313Z,83.42
2023-05-10T07:46:38.311Z,82.95
2023-05-10T07:47:38.359Z,84.77
2023-05-10T07:48:38.393Z,84.03
2023-05-10T07:49:38.439Z,84.53
2023-05-10T07:50:38.479Z,84.43
2023-05-10T07:51:38.503Z,84.23
2023-05-10T07:52:38.521Z,84.09
2023-05-10T07:53:38.537Z,83.38
2023-05-10T07:54:38.591Z,82.93
2023-05-10T07:55:38.604Z,83.95
2023-05-10T07:56:38.665Z,83.28
2023-05-10T07:57:39.187Z,82.75
2023-05-10T07:58:38.707Z,83.86
2023-05-10T07:59:38.766Z,83.60
2023-05-10T08:00:38.748Z,84.61
2023-05-10T08:01:38.838Z,84.71
2023-05-10T08:02:38.910Z,84.11
2023-05-10T08:03:39.002Z,84.41
2023-05-10T08:04:38.947Z,84.81
2023-05-10T08:05:38.916Z,85.68
2023-05-10T08:06:38.935Z,84.53
2023-05-10T08:07:38.968Z,83.92
2023-05-10T08:08:39.012Z,83.42
2023-05-10T08:09:39.033Z,83.36
2023-05-10T08:10:39.081Z,84.37
2023-05-10T08:11:39.039Z,83.46
2023-05-10T08:12:39.096Z,83.72
2023-05-10T08:13:39.129Z,83.56
2023-05-10T08:14:39.152Z,84.12
2023-05-10T08:15:39.211Z,83.12
2023-05-10T08:16:39.229Z,83.22
2023-05-10T08:17:39.283Z,83.40
2023-05-10T08:18:39.337Z,84.67
2023-05-10T08:19:39.341Z,84.29
2023-05-10T08:20:39.414Z,83.34
2023-05-10T08:21:39.454Z,83.07
2023-05-10T08:22:39.478Z,82.27
2023-05-10T08:23:39.536Z,83.72
2023-05-10T08:24:39.545Z,83.36
2023-05-10T08:25:39.615Z,83.36
2023-05-10T08:26:39.697Z,83.76
2023-05-10T08:27:39.607Z,83.60
2023-05-10T08:28:39.694Z,84.81
2023-05-10T08:29:49.480Z,84.17
2023-05-10T08:30:39.741Z,84.06
2023-05-10T08:31:39.828Z,84.11
2023-05-10T08:32:39.830Z,85.08
2023-05-10T08:33:41.532Z,84.17
2023-05-10T08:34:39.852Z,84.03
2023-05-10T08:35:39.841Z,84.39
2023-05-10T08:36:39.856Z,83.44
2023-05-10T08:37:39.891Z,82.53
2023-05-10T08:38:39.912Z,82.07
2023-05-10T08:39:39.903Z,82.51
2023-05-10T08:40:39.897Z,82.51
2023-05-10T08:41:39.901Z,83.22
2023-05-10T08:42:39.935Z,83.12
2023-05-10T08:43:39.945Z,82.21
2023-05-10T08:44:39.951Z,82.78
2023-05-10T08:45:39.980Z,83.12
2023-05-10T08:46:40.091Z,83.54
2023-05-10T08:47:40.145Z,81.93
2023-05-10T08:48:40.062Z,83.24
2023-05-10T08:49:40.084Z,80.78
2023-05-10T08:50:40.117Z,81.89
2023-05-10T08:51:41.790Z,81.18
2023-05-10T08:52:40.134Z,81.75
2023-05-10T08:53:40.147Z,80.20
2023-05-10T08:54:40.157Z,79.43
2023-05-10T08:55:40.166Z,80.64
2023-05-10T08:56:40.179Z,81.95
2023-05-10T08:57:40.191Z,81.71
2023-05-10T08:58:40.198Z,80.20
2023-05-10T08:59:40.230Z,79.90
2023-05-10T09:00:40.579Z,80.64
2023-05-10T09:01:40.339Z,79.73
2023-05-10T09:02:40.402Z,80.18
2023-05-10T09:03:40.447Z,81.68
2023-05-10T09:04:40.543Z,80.46
2023-05-10T09:05:40.537Z,79.02
2023-05-10T09:06:40.606Z,78.64
2023-05-10T09:07:40.560Z,77.27
2023-05-10T09:08:40.589Z,76.83
2023-05-10T09:09:40.625Z,78.10
2023-05-10T09:10:40.701Z,75.38
2023-05-10T09:11:41.598Z,74.92
2023-05-10T09:12:40.709Z,77.27
2023-05-10T09:13:40.729Z,76.40
2023-05-10T09:14:40.764Z,77.40
2023-05-10T09:15:40.804Z,77.57
2023-05-10T09:16:40.872Z,75.76
2023-05-10T09:17:40.930Z,76.43
2023-05-10T09:18:40.930Z,75.76
2023-05-10T09:19:40.920Z,73.75
2023-05-10T09:20:41.000Z,74.85
2023-05-10T09:21:40.978Z,75.35
2023-05-10T09:22:41.016Z,76.40
2023-05-10T09:23:41.027Z,77.47
2023-05-10T09:24:41.016Z,77.83
2023-05-10T09:25:41.043Z,75.15
2023-05-10T09:26:41.066Z,76.43
2023-05-10T09:27:41.075Z,76.97
2023-05-10T09:28:41.112Z,77.92
2023-05-10T09:29:41.103Z,79.77
2023-05-10T09:30:41.169Z,81.59
2023-05-10T09:31:41.139Z,81.18
2023-05-10T09:32:41.170Z,81.42
2023-05-10T09:33:41.163Z,82.33
2023-05-10T09:34:41.220Z,81.93
2023-05-10T09:35:41.237Z,82.47
2023-05-10T09:36:41.245Z,83.54
2023-05-10T09:37:41.281Z,82.39
2023-05-10T09:38:41.367Z,82.09
2023-05-10T09:39:41.358Z,81.82
2023-05-10T09:40:41.454Z,82.57
2023-05-10T09:41:41.466Z,83.84
2023-05-10T09:42:41.497Z,83.91
2023-05-10T09:43:41.526Z,82.29
2023-05-10T09:44:41.530Z,82.70
2023-05-10T09:45:41.604Z,83.74
2023-05-10T09:46:41.799Z,83.54
2023-05-10T09:47:41.638Z,84.35
2023-05-10T09:48:41.693Z,84.29
2023-05-10T09:49:41.769Z,84.65
2023-05-10T09:50:41.810Z,84.79
2023-05-10T09:51:41.661Z,83.68
2023-05-10T09:52:41.790Z,84.25
2023-05-10T09:53:41.763Z,82.73
2023-05-10T09:54:41.798Z,83.54
2023-05-10T09:55:41.857Z,84.29
2023-05-10T09:56:41.902Z,83.88
2023-05-10T09:57:41.886Z,84.39
2023-05-10T09:58:41.918Z,84.69
2023-05-10T09:59:41.982Z,84.55
2023-05-10T10:00:42.086Z,83.18
2023-05-10T10:01:42.223Z,83.88
2023-05-10T10:02:42.238Z,84.71
2023-05-10T10:03:42.176Z,83.20
2023-05-10T10:04:42.273Z,83.66
2023-05-10T10:05:42.274Z,83.59
2023-05-10T10:06:42.253Z,82.07
2023-05-10T10:07:42.262Z,81.07
2023-05-10T10:08:42.248Z,80.40
2023-05-10T10:09:42.266Z,80.00
2023-05-10T10:10:42.370Z,81.81
2023-05-10T10:11:42.420Z,82.24
2023-05-10T10:12:42.399Z,80.05
2023-05-10T10:13:42.431Z,77.61
2023-05-10T10:14:42.451Z,78.81
2023-05-10T10:15:42.517Z,79.32
2023-05-10T10:16:51.827Z,78.50
2023-05-10T10:17:42.698Z,77.39
2023-05-10T10:18:42.673Z,74.24
2023-05-10T10:19:42.696Z,75.81
2023-05-10T10:20:42.741Z,74.23
2023-05-10T10:21:42.747Z,73.66
2023-05-10T10:22:42.782Z,72.30
2023-05-10T10:23:42.800Z,70.50
2023-05-10T10:24:42.854Z,72.09
2023-05-10T10:25:42.922Z,73.70
2023-05-10T10:26:42.940Z,71.09
2023-05-10T10:27:43.018Z,71.03
2023-05-10T10:28:43.021Z,70.66
2023-05-10T10:29:43.073Z,72.27
2023-05-10T10:30:43.083Z,71.19
2023-05-10T10:31:43.193Z,67.72
2023-05-10T10:32:43.185Z,68.43
2023-05-10T10:33:43.170Z,67.76
2023-05-10T10:34:43.166Z,67.13
2023-05-10T10:35:43.280Z,66.03
2023-05-10T10:36:43.230Z,67.90
2023-05-10T10:37:43.275Z,65.70
2023-05-10T10:38:43.294Z,66.89
2023-05-10T10:39:43.318Z,64.87
2023-05-10T10:40:43.403Z,64.94
2023-05-10T10:41:43.402Z,63.32
2023-05-10T10:42:43.435Z,60.89
2023-05-10T10:43:43.449Z,63.25
2023-05-10T10:44:43.501Z,60.79
2023-05-10T10:45:43.562Z,64.23
2023-05-10T10:46:43.644Z,64.40
2023-05-10T10:47:43.632Z,64.17
2023-05-10T10:48:43.659Z,64.71
2023-05-10T10:49:43.657Z,64.25
2023-05-10T10:50:43.654Z,59.85
2023-05-10T10:51:43.657Z,61.87
2023-05-10T10:52:43.804Z,60.21
2023-05-10T10:53:43.762Z,62.38
2023-05-10T10:54:43.810Z,61.46
2023-05-10T10:55:43.819Z,61.63
2023-05-10T10:56:43.861Z,62.08
2023-05-10T10:57:43.891Z,60.32
2023-05-10T10:58:43.920Z,63.83
2023-05-10T10:59:43.960Z,64.56
2023-05-10T11:00:43.978Z,64.64
2023-05-10T11:01:43.961Z,61.35
2023-05-10T11:02:44.002Z,60.83
2023-05-10T11:03:44.079Z,64.56
2023-05-10T11:04:44.213Z,63.30
2023-05-10T11:05:44.148Z,63.34
2023-05-10T11:06:44.237Z,60.76
2023-05-10T11:07:44.250Z,59.28
2023-05-10T11:08:44.337Z,57.12
2023-05-10T11:09:44.351Z,56.87
2023-05-10T11:10:44.382Z,58.39
2023-05-10T11:11:44.392Z,57.90
2023-05-10T11:12:44.353Z,56.95
2023-05-10T11:13:44.416Z,57.82
2023-05-10T11:14:44.474Z,55.24
2023-05-10T11:15:44.471Z,54.55
2023-05-10T11:16:44.573Z,54.28
2023-05-10T11:17:44.737Z,55.85
2023-05-10T11:18:44.624Z,55.60
2023-05-10T11:19:44.672Z,57.37
2023-05-10T11:20:44.643Z,58.17
2023-05-10T11:21:44.699Z,56.27
2023-05-10T11:22:44.719Z,59.14
2023-05-10T11:23:44.768Z,58.54
2023-05-10T11:24:44.837Z,59.74
2023-05-10T11:25:44.889Z,56.90
2023-05-10T11:26:44.968Z,58.64
2023-05-10T11:27:45.008Z,59.34
2023-05-10T11:28:44.999Z,57.50
2023-05-10T11:29:45.016Z,58.23
2023-05-10T11:30:45.124Z,58.06
2023-05-10T11:31:45.091Z,61.30
2023-05-10T11:32:45.178Z,60.71
2023-05-10T11:33:45.134Z,61.38
2023-05-10T11:34:45.106Z,60.21
2023-05-10T11:35:45.155Z,60.15
2023-05-10T11:36:45.170Z,57.86
2023-05-10T11:37:45.216Z,59.99
2023-05-10T11:38:45.254Z,59.34
2023-05-10T11:39:45.233Z,56.49
2023-05-10T11:40:45.249Z,56.53
2023-05-10T11:41:45.214Z,59.75
2023-05-10T11:42:45.254Z,58.08
2023-05-10T11:43:45.250Z,59.65
2023-05-10T11:44:45.327Z,57.48
2023-05-10T11:45:45.296Z,56.66
2023-05-10T11:46:45.394Z,57.48
2023-05-10T11:47:45.413Z,57.26
2023-05-10T11:48:45.431Z,56.38
2023-05-10T11:49:45.517Z,55.41
2023-05-10T11:50:45.537Z,57.65
2023-05-10T11:51:45.555Z,56.06
2023-05-10T11:52:45.555Z,56.23
2023-05-10T11:53:45.593Z,56.57
2023-05-10T11:54:45.604Z,55.10
2023-05-10T11:55:45.652Z,54.75
2023-05-10T11:56:45.684Z,54.38
2023-05-10T11:57:45.676Z,57.82
2023-05-10T11:58:45.677Z,57.78
2023-05-10T11:59:45.710Z,59.34
2023-05-10T12:00:45.716Z,59.91
2023-05-10T12:01:45.729Z,59.34
2023-05-10T12:02:45.823Z,58.98
2023-05-10T12:03:45.881Z,58.34
2023-05-10T12:04:45.897Z,55.44
2023-05-10T12:05:45.830Z,53.06
2023-05-10T12:06:45.837Z,53.98
2023-05-10T12:07:45.880Z,54.16
2023-05-10T12:08:45.876Z,56.82
2023-05-10T12:09:45.973Z,55.08
2023-05-10T12:10:45.964Z,56.90
2023-05-10T12:11:46.004Z,56.16
2023-05-10T12:12:46.041Z,57.24
2023-05-10T12:13:46.026Z,57.98
2023-05-10T12:14:46.094Z,56.73
2023-05-10T12:15:46.148Z,55.13
2023-05-10T12:16:46.272Z,53.71
2023-05-10T12:17:46.243Z,54.03
2023-05-10T12:18:46.270Z,52.94
2023-05-10T12:19:46.297Z,53.39
2023-05-10T12:20:46.328Z,52.64
2023-05-10T12:21:46.427Z,50.28
2023-05-10T12:22:46.320Z,51.65
2023-05-10T12:23:46.428Z,52.44
2023-05-10T12:24:47.331Z,52.81
2023-05-10T12:25:46.421Z,51.23
2023-05-10T12:26:46.463Z,50.35
2023-05-10T12:27:46.495Z,53.51
2023-05-10T12:28:46.525Z,53.81
2023-05-10T12:29:46.620Z,53.51
2023-05-10T12:30:46.614Z,52.86
2023-05-10T12:31:46.656Z,54.33
2023-05-10T12:32:46.710Z,52.69
2023-05-10T12:33:46.681Z,53.31
2023-05-10T12:34:46.753Z,54.74
2023-05-10T12:35:46.738Z,54.83
2023-05-10T12:36:46.765Z,55.74
2023-05-10T12:37:46.754Z,58.00
2023-05-10T12:38:46.752Z,59.02
2023-05-10T12:39:46.779Z,60.45
2023-05-10T12:40:46.809Z,60.28
2023-05-10T12:41:46.821Z,61.31
2023-05-10T12:42:46.819Z,60.58
2023-05-10T12:43:46.974Z,61.64
2023-05-10T12:44:46.866Z,62.34
2023-05-10T12:45:46.921Z,62.94
2023-05-10T12:46:46.924Z,63.58
2023-05-10T12:47:46.972Z,62.71
2023-05-10T12:48:47.005Z,62.88
2023-05-10T12:49:47.070Z,62.48
2023-05-10T12:50:47.062Z,63.11
2023-05-10T12:51:47.101Z,63.54
2023-05-10T12:52:47.134Z,64.12